sensor_id;sensor_type;location;lat;lon;timestamp;P1;durP1;ratioP1;P2;durP2;ratioP2
32734;SDS011;19112;51.076;3.706;2022-11-15T00:01:48;39.20;;;20.00;;
32734;SDS011;19112;51.076;3.706;2022-11-15T00:04:14;45.60;;;19.73;;
32734;SDS011;19112;51.076;3.706;2022-11-15T00:06:40;39.50;;;19.35;;
32734;SDS011;19112;51.076;3.706;2022-11-15T00:09:06;36.45;;;17.30;;
32734;SDS011;19112;51.076;3.706;2022-11-15T00:11:32;38.10;;;18.90;;
32734;SDS011;19112;51.076;3.706;2022-11-15T00:13:58;38.88;;;18.35;;
32734;SDS011;19112;51.076;3.706;2022-11-15T00:16:26;34.75;;;16.60;;
32734;SDS011;19112;51.076;3.706;2022-11-15T00:18:52;37.55;;;18.33;;
32734;SDS011;19112;51.076;3.706;2022-11-15T00:21:18;32.78;;;16.02;;
32734;SDS011;19112;51.076;3.706;2022-11-15T00:23:44;32.85;;;16.55;;
32734;SDS011;19112;51.076;3.706;2022-11-15T00:26:10;38.90;;;17.45;;
32734;SDS011;19112;51.076;3.706;2022-11-15T00:28:38;32.05;;;15.55;;
32734;SDS011;19112;51.076;3.706;2022-11-15T00:31:05;33.75;;;15.73;;
32734;SDS011;19112;51.076;3.706;2022-11-15T00:33:33;30.55;;;14.90;;
32734;SDS011;19112;51.076;3.706;2022-11-15T00:36:03;31.23;;;15.10;;
32734;SDS011;19112;51.076;3.706;2022-11-15T00:38:34;32.42;;;15.55;;
32734;SDS011;19112;51.076;3.706;2022-11-15T00:41:04;34.20;;;14.68;;
32734;SDS011;19112;51.076;3.706;2022-11-15T00:43:31;35.40;;;15.40;;
32734;SDS011;19112;51.076;3.706;2022-11-15T00:45:58;32.83;;;15.43;;
32734;SDS011;19112;51.076;3.706;2022-11-15T00:48:23;30.65;;;14.13;;
32734;SDS011;19112;51.076;3.706;2022-11-15T00:50:49;33.47;;;15.23;;
32734;SDS011;19112;51.076;3.706;2022-11-15T00:53:15;33.08;;;15.70;;
32734;SDS011;19112;51.076;3.706;2022-11-15T00:55:42;33.17;;;15.90;;
32734;SDS011;19112;51.076;3.706;2022-11-15T00:58:08;32.15;;;15.27;;
32734;SDS011;19112;51.076;3.706;2022-11-15T01:00:34;34.83;;;16.48;;
32734;SDS011;19112;51.076;3.706;2022-11-15T01:03:00;35.83;;;15.50;;
32734;SDS011;19112;51.076;3.706;2022-11-15T01:05:26;29.75;;;15.10;;
32734;SDS011;19112;51.076;3.706;2022-11-15T01:07:53;30.75;;;14.38;;
32734;SDS011;19112;51.076;3.706;2022-11-15T01:10:20;33.83;;;15.50;;
32734;SDS011;19112;51.076;3.706;2022-11-15T01:12:47;29.27;;;14.20;;
32734;SDS011;19112;51.076;3.706;2022-11-15T01:15:14;31.05;;;14.60;;
32734;SDS011;19112;51.076;3.706;2022-11-15T01:17:40;29.45;;;14.50;;
32734;SDS011;19112;51.076;3.706;2022-11-15T01:20:06;31.45;;;14.77;;
32734;SDS011;19112;51.076;3.706;2022-11-15T01:22:32;33.63;;;14.80;;
32734;SDS011;19112;51.076;3.706;2022-11-15T01:24:58;32.83;;;15.23;;
32734;SDS011;19112;51.076;3.706;2022-11-15T01:27:24;31.20;;;15.10;;
32734;SDS011;19112;51.076;3.706;2022-11-15T01:29:49;33.35;;;15.30;;
32734;SDS011;19112;51.076;3.706;2022-11-15T01:32:16;32.22;;;15.35;;
32734;SDS011;19112;51.076;3.706;2022-11-15T01:34:41;34.60;;;15.93;;
32734;SDS011;19112;51.076;3.706;2022-11-15T01:37:07;32.63;;;15.38;;
32734;SDS011;19112;51.076;3.706;2022-11-15T01:39:33;32.47;;;15.60;;
32734;SDS011;19112;51.076;3.706;2022-11-15T01:41:58;34.63;;;14.75;;
32734;SDS011;19112;51.076;3.706;2022-11-15T01:47:00;34.08;;;15.82;;
32734;SDS011;19112;51.076;3.706;2022-11-15T01:50:00;31.80;;;13.98;;
32734;SDS011;19112;51.076;3.706;2022-11-15T01:52:31;32.95;;;13.95;;
32734;SDS011;19112;51.076;3.706;2022-11-15T01:57:47;33.25;;;13.65;;
32734;SDS011;19112;51.076;3.706;2022-11-15T02:00:18;31.63;;;14.07;;
32734;SDS011;19112;51.076;3.706;2022-11-15T02:02:44;30.58;;;12.95;;
32734;SDS011;19112;51.076;3.706;2022-11-15T02:05:09;30.85;;;13.95;;
32734;SDS011;19112;51.076;3.706;2022-11-15T02:07:35;29.45;;;12.32;;
32734;SDS011;19112;51.076;3.706;2022-11-15T02:10:04;28.23;;;12.55;;
32734;SDS011;19112;51.076;3.706;2022-11-15T02:12:34;28.55;;;12.68;;
32734;SDS011;19112;51.076;3.706;2022-11-15T02:15:00;30.00;;;12.27;;
32734;SDS011;19112;51.076;3.706;2022-11-15T02:32:25;27.20;;;11.35;;
32734;SDS011;19112;51.076;3.706;2022-11-15T02:41:30;22.52;;;9.20;;
32734;SDS011;19112;51.076;3.706;2022-11-15T02:44:13;25.00;;;9.95;;
32734;SDS011;19112;51.076;3.706;2022-11-15T02:47:11;23.42;;;8.85;;
32734;SDS011;19112;51.076;3.706;2022-11-15T02:49:42;24.75;;;9.52;;
32734;SDS011;19112;51.076;3.706;2022-11-15T02:52:22;26.58;;;10.10;;
32734;SDS011;19112;51.076;3.706;2022-11-15T03:00:16;21.25;;;8.18;;
32734;SDS011;19112;51.076;3.706;2022-11-15T03:06:04;25.63;;;8.63;;
32734;SDS011;19112;51.076;3.706;2022-11-15T03:11:19;19.30;;;7.68;;
32734;SDS011;19112;51.076;3.706;2022-11-15T03:16:45;23.90;;;8.43;;
32734;SDS011;19112;51.076;3.706;2022-11-15T03:19:58;22.77;;;7.10;;
32734;SDS011;19112;51.076;3.706;2022-11-15T03:22:29;21.85;;;7.90;;
32734;SDS011;19112;51.076;3.706;2022-11-15T03:25:05;21.38;;;6.63;;
32734;SDS011;19112;51.076;3.706;2022-11-15T03:27:35;24.58;;;6.80;;
32734;SDS011;19112;51.076;3.706;2022-11-15T03:30:07;20.83;;;6.68;;
32734;SDS011;19112;51.076;3.706;2022-11-15T03:32:35;26.77;;;7.68;;
32734;SDS011;19112;51.076;3.706;2022-11-15T03:35:11;22.30;;;6.28;;
32734;SDS011;19112;51.076;3.706;2022-11-15T03:38:00;19.95;;;6.63;;
32734;SDS011;19112;51.076;3.706;2022-11-15T03:40:40;22.17;;;6.45;;
32734;SDS011;19112;51.076;3.706;2022-11-15T03:45:51;20.25;;;6.63;;
32734;SDS011;19112;51.076;3.706;2022-11-15T03:48:37;20.00;;;6.32;;
32734;SDS011;19112;51.076;3.706;2022-11-15T03:51:11;23.42;;;6.70;;
32734;SDS011;19112;51.076;3.706;2022-11-15T03:53:37;22.17;;;6.63;;
32734;SDS011;19112;51.076;3.706;2022-11-15T03:56:02;23.08;;;7.63;;
32734;SDS011;19112;51.076;3.706;2022-11-15T03:58:28;20.23;;;6.90;;
32734;SDS011;19112;51.076;3.706;2022-11-15T04:00:54;18.52;;;6.13;;
32734;SDS011;19112;51.076;3.706;2022-11-15T04:03:20;21.67;;;6.45;;
32734;SDS011;19112;51.076;3.706;2022-11-15T04:05:45;23.45;;;6.60;;
32734;SDS011;19112;51.076;3.706;2022-11-15T04:08:11;20.85;;;7.38;;
32734;SDS011;19112;51.076;3.706;2022-11-15T04:10:37;22.05;;;7.07;;
32734;SDS011;19112;51.076;3.706;2022-11-15T04:13:03;24.02;;;6.85;;
32734;SDS011;19112;51.076;3.706;2022-11-15T04:15:28;25.23;;;7.22;;
32734;SDS011;19112;51.076;3.706;2022-11-15T04:17:55;22.50;;;7.43;;
32734;SDS011;19112;51.076;3.706;2022-11-15T04:20:23;21.42;;;8.05;;
32734;SDS011;19112;51.076;3.706;2022-11-15T04:23:10;18.42;;;6.35;;
32734;SDS011;19112;51.076;3.706;2022-11-15T04:26:10;20.33;;;7.00;;
32734;SDS011;19112;51.076;3.706;2022-11-15T04:28:41;21.85;;;6.43;;
32734;SDS011;19112;51.076;3.706;2022-11-15T04:31:26;17.08;;;6.57;;
32734;SDS011;19112;51.076;3.706;2022-11-15T04:33:52;21.90;;;6.82;;
32734;SDS011;19112;51.076;3.706;2022-11-15T04:36:19;22.73;;;6.90;;
32734;SDS011;19112;51.076;3.706;2022-11-15T04:39:04;26.58;;;7.50;;
32734;SDS011;19112;51.076;3.706;2022-11-15T04:41:30;25.70;;;7.32;;
32734;SDS011;19112;51.076;3.706;2022-11-15T04:43:55;23.48;;;7.05;;
32734;SDS011;19112;51.076;3.706;2022-11-15T04:46:21;20.30;;;7.22;;
32734;SDS011;19112;51.076;3.706;2022-11-15T04:48:48;25.48;;;7.20;;
32734;SDS011;19112;51.076;3.706;2022-11-15T04:51:14;23.80;;;8.43;;
32734;SDS011;19112;51.076;3.706;2022-11-15T04:53:40;22.67;;;7.13;;
32734;SDS011;19112;51.076;3.706;2022-11-15T04:56:06;21.08;;;6.70;;
32734;SDS011;19112;51.076;3.706;2022-11-15T04:58:32;22.58;;;6.47;;
32734;SDS011;19112;51.076;3.706;2022-11-15T05:00:58;20.98;;;5.90;;
32734;SDS011;19112;51.076;3.706;2022-11-15T05:06:26;18.23;;;5.72;;
32734;SDS011;19112;51.076;3.706;2022-11-15T05:08:52;17.80;;;6.18;;
32734;SDS011;19112;51.076;3.706;2022-11-15T05:11:18;18.50;;;5.30;;
32734;SDS011;19112;51.076;3.706;2022-11-15T05:13:44;18.05;;;5.55;;
32734;SDS011;19112;51.076;3.706;2022-11-15T05:16:11;16.70;;;5.72;;
32734;SDS011;19112;51.076;3.706;2022-11-15T05:18:36;18.23;;;5.80;;
32734;SDS011;19112;51.076;3.706;2022-11-15T05:21:06;20.40;;;5.43;;
32734;SDS011;19112;51.076;3.706;2022-11-15T05:23:34;17.63;;;5.97;;
32734;SDS011;19112;51.076;3.706;2022-11-15T05:26:01;17.08;;;5.70;;
32734;SDS011;19112;51.076;3.706;2022-11-15T05:28:29;19.10;;;5.13;;
32734;SDS011;19112;51.076;3.706;2022-11-15T05:31:06;20.80;;;5.88;;
32734;SDS011;19112;51.076;3.706;2022-11-15T05:33:40;19.80;;;5.28;;
32734;SDS011;19112;51.076;3.706;2022-11-15T05:39:10;19.67;;;5.50;;
32734;SDS011;19112;51.076;3.706;2022-11-15T05:44:09;17.17;;;5.35;;
32734;SDS011;19112;51.076;3.706;2022-11-15T05:46:38;24.27;;;5.50;;
32734;SDS011;19112;51.076;3.706;2022-11-15T05:49:07;20.92;;;5.70;;
32734;SDS011;19112;51.076;3.706;2022-11-15T05:51:37;20.88;;;5.68;;
32734;SDS011;19112;51.076;3.706;2022-11-15T05:54:04;17.83;;;5.97;;
32734;SDS011;19112;51.076;3.706;2022-11-15T05:56:30;17.73;;;5.85;;
32734;SDS011;19112;51.076;3.706;2022-11-15T05:58:56;19.70;;;5.70;;
32734;SDS011;19112;51.076;3.706;2022-11-15T06:01:23;14.77;;;5.50;;
32734;SDS011;19112;51.076;3.706;2022-11-15T06:03:51;22.35;;;5.63;;
32734;SDS011;19112;51.076;3.706;2022-11-15T06:06:17;18.42;;;6.25;;
32734;SDS011;19112;51.076;3.706;2022-11-15T06:08:42;17.58;;;6.07;;
32734;SDS011;19112;51.076;3.706;2022-11-15T06:11:08;17.13;;;5.60;;
32734;SDS011;19112;51.076;3.706;2022-11-15T06:13:34;17.52;;;5.47;;
32734;SDS011;19112;51.076;3.706;2022-11-15T06:16:00;19.27;;;5.65;;
32734;SDS011;19112;51.076;3.706;2022-11-15T06:18:26;20.15;;;5.82;;
32734;SDS011;19112;51.076;3.706;2022-11-15T06:20:52;18.98;;;5.93;;
32734;SDS011;19112;51.076;3.706;2022-11-15T06:23:17;16.55;;;5.80;;
32734;SDS011;19112;51.076;3.706;2022-11-15T06:25:43;19.67;;;6.30;;
32734;SDS011;19112;51.076;3.706;2022-11-15T06:28:09;19.63;;;6.60;;
32734;SDS011;19112;51.076;3.706;2022-11-15T06:30:35;19.55;;;6.63;;
32734;SDS011;19112;51.076;3.706;2022-11-15T06:33:01;20.75;;;7.60;;
32734;SDS011;19112;51.076;3.706;2022-11-15T06:35:29;27.75;;;8.70;;
32734;SDS011;19112;51.076;3.706;2022-11-15T06:38:02;19.30;;;7.32;;
32734;SDS011;19112;51.076;3.706;2022-11-15T06:40:35;24.35;;;7.78;;
32734;SDS011;19112;51.076;3.706;2022-11-15T06:43:03;24.65;;;7.55;;
32734;SDS011;19112;51.076;3.706;2022-11-15T06:45:30;22.38;;;7.88;;
32734;SDS011;19112;51.076;3.706;2022-11-15T06:47:57;24.23;;;8.98;;
32734;SDS011;19112;51.076;3.706;2022-11-15T06:50:23;25.02;;;7.68;;
32734;SDS011;19112;51.076;3.706;2022-11-15T06:52:49;26.52;;;8.25;;
32734;SDS011;19112;51.076;3.706;2022-11-15T06:55:15;20.05;;;7.63;;
32734;SDS011;19112;51.076;3.706;2022-11-15T06:57:51;19.17;;;7.45;;
32734;SDS011;19112;51.076;3.706;2022-11-15T07:00:18;23.95;;;7.30;;
32734;SDS011;19112;51.076;3.706;2022-11-15T07:02:46;17.85;;;7.00;;
32734;SDS011;19112;51.076;3.706;2022-11-15T07:05:12;31.08;;;8.52;;
32734;SDS011;19112;51.076;3.706;2022-11-15T07:07:39;23.73;;;7.47;;
32734;SDS011;19112;51.076;3.706;2022-11-15T07:10:06;23.23;;;7.70;;
32734;SDS011;19112;51.076;3.706;2022-11-15T07:12:32;22.23;;;8.65;;
32734;SDS011;19112;51.076;3.706;2022-11-15T07:14:59;22.23;;;9.10;;
32734;SDS011;19112;51.076;3.706;2022-11-15T07:17:24;26.08;;;9.18;;
32734;SDS011;19112;51.076;3.706;2022-11-15T07:19:50;20.42;;;7.32;;
32734;SDS011;19112;51.076;3.706;2022-11-15T07:22:16;26.35;;;8.35;;
32734;SDS011;19112;51.076;3.706;2022-11-15T07:24:42;21.52;;;7.93;;
32734;SDS011;19112;51.076;3.706;2022-11-15T07:27:07;27.17;;;8.68;;
32734;SDS011;19112;51.076;3.706;2022-11-15T07:29:33;24.50;;;7.40;;
32734;SDS011;19112;51.076;3.706;2022-11-15T07:31:59;20.38;;;7.18;;
32734;SDS011;19112;51.076;3.706;2022-11-15T07:34:25;21.35;;;7.10;;
32734;SDS011;19112;51.076;3.706;2022-11-15T07:36:50;19.80;;;7.15;;
32734;SDS011;19112;51.076;3.706;2022-11-15T07:39:16;19.33;;;7.28;;
32734;SDS011;19112;51.076;3.706;2022-11-15T07:41:42;23.42;;;7.85;;
32734;SDS011;19112;51.076;3.706;2022-11-15T07:44:08;23.90;;;7.50;;
32734;SDS011;19112;51.076;3.706;2022-11-15T07:46:34;20.80;;;7.70;;
32734;SDS011;19112;51.076;3.706;2022-11-15T07:49:00;20.08;;;8.00;;
32734;SDS011;19112;51.076;3.706;2022-11-15T07:51:25;18.95;;;8.05;;
32734;SDS011;19112;51.076;3.706;2022-11-15T07:53:51;20.20;;;7.82;;
32734;SDS011;19112;51.076;3.706;2022-11-15T07:56:17;19.83;;;7.47;;
32734;SDS011;19112;51.076;3.706;2022-11-15T07:58:45;20.67;;;7.50;;
32734;SDS011;19112;51.076;3.706;2022-11-15T08:01:11;21.60;;;7.45;;
32734;SDS011;19112;51.076;3.706;2022-11-15T08:03:37;22.70;;;7.75;;
32734;SDS011;19112;51.076;3.706;2022-11-15T08:06:03;25.50;;;7.97;;
32734;SDS011;19112;51.076;3.706;2022-11-15T08:08:29;19.42;;;7.72;;
32734;SDS011;19112;51.076;3.706;2022-11-15T08:10:56;20.35;;;8.45;;
32734;SDS011;19112;51.076;3.706;2022-11-15T08:13:23;19.85;;;6.75;;
32734;SDS011;19112;51.076;3.706;2022-11-15T08:15:49;25.58;;;7.47;;
32734;SDS011;19112;51.076;3.706;2022-11-15T08:18:15;20.02;;;6.82;;
32734;SDS011;19112;51.076;3.706;2022-11-15T08:20:42;26.10;;;7.10;;
32734;SDS011;19112;51.076;3.706;2022-11-15T08:23:09;19.85;;;6.80;;
32734;SDS011;19112;51.076;3.706;2022-11-15T08:25:37;18.65;;;6.22;;
32734;SDS011;19112;51.076;3.706;2022-11-15T08:28:04;13.93;;;5.53;;
32734;SDS011;19112;51.076;3.706;2022-11-15T08:30:38;16.13;;;5.70;;
32734;SDS011;19112;51.076;3.706;2022-11-15T08:33:10;19.95;;;5.47;;
32734;SDS011;19112;51.076;3.706;2022-11-15T08:35:37;18.10;;;5.03;;
32734;SDS011;19112;51.076;3.706;2022-11-15T08:38:05;18.30;;;5.50;;
32734;SDS011;19112;51.076;3.706;2022-11-15T08:40:31;14.68;;;5.70;;
32734;SDS011;19112;51.076;3.706;2022-11-15T08:42:56;12.65;;;5.32;;
32734;SDS011;19112;51.076;3.706;2022-11-15T08:45:23;16.52;;;5.18;;
32734;SDS011;19112;51.076;3.706;2022-11-15T08:47:49;12.88;;;4.47;;
32734;SDS011;19112;51.076;3.706;2022-11-15T08:50:15;17.17;;;4.80;;
32734;SDS011;19112;51.076;3.706;2022-11-15T08:52:41;16.88;;;4.70;;
32734;SDS011;19112;51.076;3.706;2022-11-15T08:55:07;9.70;;;4.35;;
32734;SDS011;19112;51.076;3.706;2022-11-15T08:57:33;22.08;;;5.07;;
32734;SDS011;19112;51.076;3.706;2022-11-15T08:59:59;18.20;;;4.28;;
32734;SDS011;19112;51.076;3.706;2022-11-15T09:02:24;18.92;;;4.75;;
32734;SDS011;19112;51.076;3.706;2022-11-15T09:04:50;10.80;;;3.55;;
32734;SDS011;19112;51.076;3.706;2022-11-15T09:07:16;14.43;;;3.85;;
32734;SDS011;19112;51.076;3.706;2022-11-15T09:09:42;16.35;;;4.03;;
32734;SDS011;19112;51.076;3.706;2022-11-15T09:12:08;15.00;;;4.00;;
32734;SDS011;19112;51.076;3.706;2022-11-15T09:14:34;14.70;;;3.67;;
32734;SDS011;19112;51.076;3.706;2022-11-15T09:16:59;14.48;;;3.63;;
32734;SDS011;19112;51.076;3.706;2022-11-15T09:19:26;15.65;;;3.30;;
32734;SDS011;19112;51.076;3.706;2022-11-15T09:21:52;15.25;;;3.58;;
32734;SDS011;19112;51.076;3.706;2022-11-15T09:24:17;18.02;;;4.15;;
32734;SDS011;19112;51.076;3.706;2022-11-15T09:26:43;15.55;;;4.20;;
32734;SDS011;19112;51.076;3.706;2022-11-15T09:29:09;14.50;;;3.50;;
32734;SDS011;19112;51.076;3.706;2022-11-15T09:31:35;17.92;;;3.83;;
32734;SDS011;19112;51.076;3.706;2022-11-15T09:34:01;16.10;;;3.60;;
32734;SDS011;19112;51.076;3.706;2022-11-15T09:36:27;11.85;;;3.25;;
32734;SDS011;19112;51.076;3.706;2022-11-15T09:38:53;15.02;;;3.38;;
32734;SDS011;19112;51.076;3.706;2022-11-15T09:44:56;13.80;;;3.35;;
32734;SDS011;19112;51.076;3.706;2022-11-15T09:53:22;15.82;;;3.63;;
32734;SDS011;19112;51.076;3.706;2022-11-15T09:55:59;16.63;;;3.53;;
32734;SDS011;19112;51.076;3.706;2022-11-15T09:58:33;15.02;;;3.42;;
32734;SDS011;19112;51.076;3.706;2022-11-15T10:01:12;14.07;;;3.65;;
32734;SDS011;19112;51.076;3.706;2022-11-15T10:03:58;12.15;;;3.63;;
32734;SDS011;19112;51.076;3.706;2022-11-15T10:06:25;14.48;;;3.65;;
32734;SDS011;19112;51.076;3.706;2022-11-15T10:11:30;15.80;;;3.42;;
32734;SDS011;19112;51.076;3.706;2022-11-15T10:14:00;12.27;;;3.13;;
32734;SDS011;19112;51.076;3.706;2022-11-15T10:27:28;12.63;;;3.95;;
32734;SDS011;19112;51.076;3.706;2022-11-15T10:29:55;16.38;;;2.80;;
32734;SDS011;19112;51.076;3.706;2022-11-15T10:32:20;10.07;;;3.05;;
32734;SDS011;19112;51.076;3.706;2022-11-15T10:34:47;20.67;;;3.47;;
32734;SDS011;19112;51.076;3.706;2022-11-15T10:37:14;18.00;;;4.53;;
32734;SDS011;19112;51.076;3.706;2022-11-15T10:40:14;20.23;;;3.15;;
32734;SDS011;19112;51.076;3.706;2022-11-15T10:45:34;14.80;;;3.20;;
32734;SDS011;19112;51.076;3.706;2022-11-15T10:50:45;16.92;;;3.10;;
32734;SDS011;19112;51.076;3.706;2022-11-15T10:53:23;15.82;;;3.28;;
32734;SDS011;19112;51.076;3.706;2022-11-15T10:56:11;8.80;;;2.75;;
32734;SDS011;19112;51.076;3.706;2022-11-15T11:01:13;15.07;;;3.33;;
32734;SDS011;19112;51.076;3.706;2022-11-15T11:04:03;11.23;;;2.65;;
32734;SDS011;19112;51.076;3.706;2022-11-15T11:06:45;18.25;;;3.70;;
32734;SDS011;19112;51.076;3.706;2022-11-15T11:09:30;13.35;;;2.97;;
32734;SDS011;19112;51.076;3.706;2022-11-15T11:12:02;14.00;;;2.92;;
32734;SDS011;19112;51.076;3.706;2022-11-15T11:14:34;13.82;;;2.85;;
32734;SDS011;19112;51.076;3.706;2022-11-15T11:20:02;11.95;;;2.58;;
32734;SDS011;19112;51.076;3.706;2022-11-15T11:29:16;9.52;;;2.40;;
32734;SDS011;19112;51.076;3.706;2022-11-15T11:32:22;9.70;;;2.40;;
32734;SDS011;19112;51.076;3.706;2022-11-15T11:35:29;19.23;;;2.78;;
32734;SDS011;19112;51.076;3.706;2022-11-15T11:43:40;11.27;;;2.17;;
32734;SDS011;19112;51.076;3.706;2022-11-15T11:49:21;13.80;;;2.38;;
32734;SDS011;19112;51.076;3.706;2022-11-15T11:52:09;10.02;;;2.38;;
32734;SDS011;19112;51.076;3.706;2022-11-15T12:00:14;16.73;;;2.25;;
32734;SDS011;19112;51.076;3.706;2022-11-15T12:05:56;12.95;;;2.13;;
32734;SDS011;19112;51.076;3.706;2022-11-15T12:08:36;13.13;;;2.28;;
32734;SDS011;19112;51.076;3.706;2022-11-15T12:14:04;14.07;;;3.45;;
32734;SDS011;19112;51.076;3.706;2022-11-15T12:16:41;12.73;;;2.80;;
32734;SDS011;19112;51.076;3.706;2022-11-15T12:19:08;15.57;;;2.97;;
32734;SDS011;19112;51.076;3.706;2022-11-15T12:24:32;20.52;;;2.90;;
32734;SDS011;19112;51.076;3.706;2022-11-15T12:27:17;9.23;;;2.53;;
32734;SDS011;19112;51.076;3.706;2022-11-15T12:29:58;14.82;;;3.10;;
32734;SDS011;19112;51.076;3.706;2022-11-15T12:32:30;12.32;;;2.97;;
32734;SDS011;19112;51.076;3.706;2022-11-15T12:35:06;8.05;;;2.10;;
32734;SDS011;19112;51.076;3.706;2022-11-15T12:37:59;10.38;;;2.20;;
32734;SDS011;19112;51.076;3.706;2022-11-15T12:40:26;8.52;;;2.42;;
32734;SDS011;19112;51.076;3.706;2022-11-15T12:45:38;9.88;;;2.60;;
32734;SDS011;19112;51.076;3.706;2022-11-15T12:53:29;10.07;;;2.60;;
32734;SDS011;19112;51.076;3.706;2022-11-15T12:58:42;12.63;;;2.38;;
32734;SDS011;19112;51.076;3.706;2022-11-15T13:06:46;10.13;;;2.53;;
32734;SDS011;19112;51.076;3.706;2022-11-15T13:11:59;6.78;;;2.13;;
32734;SDS011;19112;51.076;3.706;2022-11-15T13:14:44;13.48;;;2.70;;
32734;SDS011;19112;51.076;3.706;2022-11-15T13:19:47;7.07;;;2.33;;
32734;SDS011;19112;51.076;3.706;2022-11-15T13:22:26;12.02;;;3.22;;
32734;SDS011;19112;51.076;3.706;2022-11-15T13:33:25;11.32;;;2.88;;
32734;SDS011;19112;51.076;3.706;2022-11-15T13:35:59;8.50;;;2.92;;
32734;SDS011;19112;51.076;3.706;2022-11-15T13:38:31;10.52;;;2.55;;
32734;SDS011;19112;51.076;3.706;2022-11-15T13:41:23;8.30;;;2.67;;
32734;SDS011;19112;51.076;3.706;2022-11-15T13:43:52;6.15;;;2.28;;
32734;SDS011;19112;51.076;3.706;2022-11-15T13:46:21;9.20;;;2.88;;
32734;SDS011;19112;51.076;3.706;2022-11-15T13:48:53;12.52;;;2.78;;
32734;SDS011;19112;51.076;3.706;2022-11-15T14:01:59;13.98;;;2.70;;
32734;SDS011;19112;51.076;3.706;2022-11-15T14:04:45;13.05;;;2.63;;
32734;SDS011;19112;51.076;3.706;2022-11-15T14:07:24;9.32;;;3.15;;
32734;SDS011;19112;51.076;3.706;2022-11-15T14:09:52;8.18;;;2.92;;
32734;SDS011;19112;51.076;3.706;2022-11-15T14:12:26;10.80;;;2.88;;
32734;SDS011;19112;51.076;3.706;2022-11-15T14:14:58;9.60;;;2.60;;
32734;SDS011;19112;51.076;3.706;2022-11-15T14:17:44;10.55;;;3.03;;
32734;SDS011;19112;51.076;3.706;2022-11-15T14:20:24;6.95;;;2.55;;
32734;SDS011;19112;51.076;3.706;2022-11-15T14:23:02;9.63;;;2.95;;
32734;SDS011;19112;51.076;3.706;2022-11-15T14:25:31;7.38;;;2.58;;
32734;SDS011;19112;51.076;3.706;2022-11-15T14:28:08;7.15;;;2.55;;
32734;SDS011;19112;51.076;3.706;2022-11-15T14:30:42;9.30;;;3.22;;
32734;SDS011;19112;51.076;3.706;2022-11-15T14:36:02;8.90;;;2.63;;
32734;SDS011;19112;51.076;3.706;2022-11-15T14:38:43;14.10;;;3.35;;
32734;SDS011;19112;51.076;3.706;2022-11-15T14:41:33;10.73;;;2.97;;
32734;SDS011;19112;51.076;3.706;2022-11-15T14:44:02;10.90;;;3.20;;
32734;SDS011;19112;51.076;3.706;2022-11-15T14:46:30;9.55;;;3.17;;
32734;SDS011;19112;51.076;3.706;2022-11-15T14:48:56;14.48;;;3.50;;
32734;SDS011;19112;51.076;3.706;2022-11-15T14:51:22;9.80;;;3.10;;
32734;SDS011;19112;51.076;3.706;2022-11-15T14:53:48;11.93;;;3.60;;
32734;SDS011;19112;51.076;3.706;2022-11-15T14:56:14;15.40;;;3.83;;
32734;SDS011;19112;51.076;3.706;2022-11-15T14:58:41;11.70;;;3.50;;
32734;SDS011;19112;51.076;3.706;2022-11-15T15:03:46;11.55;;;3.30;;
32734;SDS011;19112;51.076;3.706;2022-11-15T15:06:12;9.27;;;3.38;;
32734;SDS011;19112;51.076;3.706;2022-11-15T15:08:41;10.93;;;3.58;;
32734;SDS011;19112;51.076;3.706;2022-11-15T15:11:10;13.60;;;3.85;;
32734;SDS011;19112;51.076;3.706;2022-11-15T15:13:40;16.00;;;4.30;;
32734;SDS011;19112;51.076;3.706;2022-11-15T15:16:06;13.25;;;3.83;;
32734;SDS011;19112;51.076;3.706;2022-11-15T15:18:31;11.15;;;3.90;;
32734;SDS011;19112;51.076;3.706;2022-11-15T15:20:58;11.00;;;3.92;;
32734;SDS011;19112;51.076;3.706;2022-11-15T15:23:27;14.38;;;4.68;;
32734;SDS011;19112;51.076;3.706;2022-11-15T15:25:56;12.93;;;4.07;;
32734;SDS011;19112;51.076;3.706;2022-11-15T15:28:22;14.45;;;4.25;;
32734;SDS011;19112;51.076;3.706;2022-11-15T15:30:47;16.33;;;4.47;;
32734;SDS011;19112;51.076;3.706;2022-11-15T15:33:14;13.60;;;4.68;;
32734;SDS011;19112;51.076;3.706;2022-11-15T15:35:40;16.08;;;4.68;;
32734;SDS011;19112;51.076;3.706;2022-11-15T15:38:08;12.77;;;4.80;;
32734;SDS011;19112;51.076;3.706;2022-11-15T15:40:37;14.18;;;5.05;;
32734;SDS011;19112;51.076;3.706;2022-11-15T15:43:03;12.32;;;4.65;;
32734;SDS011;19112;51.076;3.706;2022-11-15T15:45:28;14.52;;;4.53;;
32734;SDS011;19112;51.076;3.706;2022-11-15T15:47:55;14.25;;;4.38;;
32734;SDS011;19112;51.076;3.706;2022-11-15T15:50:22;11.90;;;4.85;;
32734;SDS011;19112;51.076;3.706;2022-11-15T15:52:59;13.68;;;4.93;;
32734;SDS011;19112;51.076;3.706;2022-11-15T15:55:27;14.90;;;4.90;;
32734;SDS011;19112;51.076;3.706;2022-11-15T15:57:53;12.75;;;5.18;;
32734;SDS011;19112;51.076;3.706;2022-11-15T16:00:20;11.95;;;4.90;;
32734;SDS011;19112;51.076;3.706;2022-11-15T16:02:48;12.32;;;4.85;;
32734;SDS011;19112;51.076;3.706;2022-11-15T16:05:14;14.80;;;4.97;;
32734;SDS011;19112;51.076;3.706;2022-11-15T16:07:40;24.60;;;6.43;;
32734;SDS011;19112;51.076;3.706;2022-11-15T16:10:18;14.43;;;5.28;;
32734;SDS011;19112;51.076;3.706;2022-11-15T16:12:49;15.38;;;5.68;;
32734;SDS011;19112;51.076;3.706;2022-11-15T16:15:16;17.13;;;5.63;;
32734;SDS011;19112;51.076;3.706;2022-11-15T16:17:55;14.73;;;5.35;;
32734;SDS011;19112;51.076;3.706;2022-11-15T16:22:56;11.45;;;4.97;;
32734;SDS011;19112;51.076;3.706;2022-11-15T16:25:22;10.90;;;4.80;;
32734;SDS011;19112;51.076;3.706;2022-11-15T16:27:48;14.75;;;4.78;;
32734;SDS011;19112;51.076;3.706;2022-11-15T16:30:14;12.25;;;4.60;;
32734;SDS011;19112;51.076;3.706;2022-11-15T16:32:42;12.32;;;4.68;;
32734;SDS011;19112;51.076;3.706;2022-11-15T16:35:11;12.07;;;4.93;;
32734;SDS011;19112;51.076;3.706;2022-11-15T16:37:39;10.25;;;4.63;;
32734;SDS011;19112;51.076;3.706;2022-11-15T16:40:27;14.68;;;5.10;;
32734;SDS011;19112;51.076;3.706;2022-11-15T16:42:57;12.90;;;4.75;;
32734;SDS011;19112;51.076;3.706;2022-11-15T16:45:24;13.07;;;4.78;;
32734;SDS011;19112;51.076;3.706;2022-11-15T16:47:51;12.73;;;4.90;;
32734;SDS011;19112;51.076;3.706;2022-11-15T16:50:21;12.43;;;4.47;;
32734;SDS011;19112;51.076;3.706;2022-11-15T16:52:55;12.02;;;5.00;;
32734;SDS011;19112;51.076;3.706;2022-11-15T16:55:23;15.18;;;4.88;;
32734;SDS011;19112;51.076;3.706;2022-11-15T16:57:52;13.10;;;4.88;;
32734;SDS011;19112;51.076;3.706;2022-11-15T17:00:19;14.65;;;5.40;;
32734;SDS011;19112;51.076;3.706;2022-11-15T17:02:46;11.32;;;4.65;;
32734;SDS011;19112;51.076;3.706;2022-11-15T17:05:14;16.52;;;5.05;;
32734;SDS011;19112;51.076;3.706;2022-11-15T17:07:47;14.40;;;5.20;;
32734;SDS011;19112;51.076;3.706;2022-11-15T17:10:17;13.55;;;5.00;;
32734;SDS011;19112;51.076;3.706;2022-11-15T17:12:48;13.98;;;5.40;;
32734;SDS011;19112;51.076;3.706;2022-11-15T17:15:15;16.33;;;5.78;;
32734;SDS011;19112;51.076;3.706;2022-11-15T17:17:41;13.13;;;5.78;;
32734;SDS011;19112;51.076;3.706;2022-11-15T17:20:17;14.55;;;5.60;;
32734;SDS011;19112;51.076;3.706;2022-11-15T17:22:43;12.20;;;4.93;;
32734;SDS011;19112;51.076;3.706;2022-11-15T17:25:11;15.82;;;6.28;;
32734;SDS011;19112;51.076;3.706;2022-11-15T17:27:37;12.43;;;5.18;;
32734;SDS011;19112;51.076;3.706;2022-11-15T17:30:04;12.98;;;5.25;;
32734;SDS011;19112;51.076;3.706;2022-11-15T17:32:31;14.20;;;4.80;;
32734;SDS011;19112;51.076;3.706;2022-11-15T17:35:00;11.65;;;4.95;;